Aérodrome :
LOGIN :

S'inscrire | Disclaimer

   EN    FR    IT 

 










Légende :    VFR   VFR Marginal   IFR   IFR Intensif   IFR Très Intensif
Visi : 
Plafond : 
>= 8 km
>= 3000ft
5 à 8 km
1000 à 3000 ft
1500m à 5 km
500 à 1000 ft
800 à 1500m
200 à 500 ft
< 800m
< 200 ft
Symboles :   Orages  Brouillard  Fortes neiges  Fortes précipitations  Vent > 20 kt
SIGMETs :   Divers  Orages  Givrage  Turbulence  Onde Orograph.  Cendres Volcan.







- Altitude de l'aérodrome : 390 ft
- Code IATA : NQY
- Voir les cartes d'approche


EGHQ - Newquay

DERNIER METAR :
  • 261120Z 25018KT 3500 BR BKN002 17/16 Q1007

METARs EXPIRÉS :
  • 261050Z 24019KT 3000 R30/1400 -DZ BKN002 16/16 Q1007
  • 261020Z 23018KT 1800 -RADZ BR BKN003 17/16 Q1007
  • 260950Z 22013KT 3500 -RADZ BR BKN003 17/16 Q1007
  • 260920Z 22015KT 1800 -RADZ BR BKN003 16/16 Q1007

TAF TAF EGHQ
Valide du 26 à 12h jusqu'au 26 à 21h UTC


261102Z 2612/2621 21018KT 1400 -RA BR BKN002
BECMG 2612/2614 27014KT 9999 NSW SCT025
Pas de NOTAMs connus pour ce terrain.



MET'MAP, la Météo Aéronautique d'un coup d'oeil ! - Copyright ORBIFLY Décembre 2007 - Disclaimer

ORBIFLY MET'MAP TEAM :

Programmation & Développement : Alexandra Zaïnal
Conception & Développement : Baudouin d'Aumeries
Co-Programmation & Développement : Marc-Olivier Méhu
Soutien technique & logistique : Manuel Goepfert

Contact : metmap@orbifly.com




SOURCES & CREDITS :

   NOAA